Time;durP1;ratioP1;P1;durP2;ratioP2;P2;SDS_P1;SDS_P2;PMS_P1;PMS_P2;Temp;Humidity;BMP_temperature;BMP_pressure;BME280_temperature;BME280_humidity;BME280_pressure;Samples;Min_cycle;Max_cycle;Signal;HPM_P1;HPM_P2
2022/11/30 00:00:27;;;;;;;62.08;28.23;;;;;;;;;;6248345;28;20080;-74
2022/11/30 00:03:28;;;;;;;62.33;25.87;;;;;;;;;;6246829;28;20029;-74
2022/11/30 00:06:28;;;;;;;63.20;26.00;;;;;;;;;;6246372;28;20485;-74
2022/11/30 00:09:28;;;;;;;56.73;26.63;;;;;;;;;;6242639;28;20140;-74
2022/11/30 00:12:28;;;;;;;65.00;29.83;;;;;;;;;;6247773;28;20086;-75
2022/11/30 00:15:28;;;;;;;58.67;26.87;;;;;;;;;;6237233;28;20388;-74
2022/11/30 00:18:29;;;;;;;59.63;26.97;;;;;;;;;;6247564;28;20431;-74
2022/11/30 00:21:29;;;;;;;53.03;25.93;;;;;;;;;;6246983;28;20013;-74
2022/11/30 00:24:29;;;;;;;52.23;24.70;;;;;;;;;;6246844;28;20018;-74
2022/11/30 00:27:30;;;;;;;59.33;26.13;;;;;;;;;;6246186;28;20023;-74
2022/11/30 00:30:30;;;;;;;54.87;28.23;;;;;;;;;;6247576;28;20024;-75
2022/11/30 00:33:31;;;;;;;57.03;25.33;;;;;;;;;;6246493;28;20025;-76
2022/11/30 00:36:32;;;;;;;64.23;26.43;;;;;;;;;;6245548;28;20029;-75
2022/11/30 00:39:32;;;;;;;59.27;25.50;;;;;;;;;;6240509;28;20266;-75
2022/11/30 00:42:32;;;;;;;49.05;23.70;;;;;;;;;;6247533;28;20409;-74
2022/11/30 00:45:32;;;;;;;60.40;28.23;;;;;;;;;;6246907;28;20053;-74
2022/11/30 00:48:32;;;;;;;64.63;28.52;;;;;;;;;;6236217;28;20018;-75
2022/11/30 00:51:33;;;;;;;63.97;26.57;;;;;;;;;;6247456;28;20367;-75
2022/11/30 00:54:33;;;;;;;66.17;28.23;;;;;;;;;;6245315;28;20025;-75
2022/11/30 00:57:33;;;;;;;64.67;29.50;;;;;;;;;;6230338;28;20385;-74
2022/11/30 01:00:33;;;;;;;64.27;28.07;;;;;;;;;;6246598;28;20064;-74
2022/11/30 01:03:35;;;;;;;59.00;26.67;;;;;;;;;;6249089;28;20045;-75
2022/11/30 01:06:36;;;;;;;59.78;27.58;;;;;;;;;;6246683;28;20560;-75
2022/11/30 01:09:36;;;;;;;62.33;27.70;;;;;;;;;;6232733;28;20032;-75
2022/11/30 01:12:36;;;;;;;61.97;27.52;;;;;;;;;;6231501;28;20071;-75
2022/11/30 01:15:37;;;;;;;56.67;23.60;;;;;;;;;;6244126;28;20018;-75
2022/11/30 01:18:38;;;;;;;65.43;26.58;;;;;;;;;;6246863;28;20017;-74
2022/11/30 01:21:38;;;;;;;61.97;26.40;;;;;;;;;;6244581;28;20423;-74
2022/11/30 01:24:38;;;;;;;57.80;28.37;;;;;;;;;;6246062;28;20065;-75
2022/11/30 01:27:38;;;;;;;65.50;28.67;;;;;;;;;;6244849;28;20014;-75
2022/11/30 01:30:38;;;;;;;62.93;27.17;;;;;;;;;;6235831;28;20052;-74
2022/11/30 01:33:39;;;;;;;54.42;24.60;;;;;;;;;;6246169;28;20018;-75
2022/11/30 01:36:39;;;;;;;60.33;25.27;;;;;;;;;;6246411;28;20020;-75
2022/11/30 01:39:40;;;;;;;54.97;24.70;;;;;;;;;;6245619;28;20096;-76
2022/11/30 01:42:44;;;;;;;59.03;26.57;;;;;;;;;;6244983;28;20397;-76
2022/11/30 01:45:47;;;;;;;68.18;30.20;;;;;;;;;;6232948;28;20040;-75
2022/11/30 01:48:51;;;;;;;52.08;25.85;;;;;;;;;;6241928;28;20363;-75
2022/11/30 01:52:01;;;;;;;51.78;23.70;;;;;;;;;;6246937;28;20099;-76
2022/11/30 01:55:07;;;;;;;62.15;26.20;;;;;;;;;;6234283;28;20022;-75
2022/11/30 01:58:12;;;;;;;50.72;23.30;;;;;;;;;;6244147;28;20021;-75
2022/11/30 02:01:12;;;;;;;56.42;28.25;;;;;;;;;;6242154;28;20092;-76
2022/11/30 02:04:33;;;;;;;58.57;27.03;;;;;;;;;;6236620;28;20053;-76
2022/11/30 02:07:33;;;;;;;53.60;27.42;;;;;;;;;;6242276;28;21583;-76
2022/11/30 02:10:35;;;;;;;64.97;27.70;;;;;;;;;;6245400;28;20024;-76
2022/11/30 02:13:43;;;;;;;64.90;26.75;;;;;;;;;;6238043;28;20045;-76
2022/11/30 02:16:48;;;;;;;60.95;26.38;;;;;;;;;;6239132;28;20500;-76
2022/11/30 02:20:03;;;;;;;54.78;26.17;;;;;;;;;;6243317;28;20466;-77
2022/11/30 02:23:12;;;;;;;55.30;25.75;;;;;;;;;;6244295;28;20076;-76
2022/11/30 02:26:35;;;;;;;57.95;27.02;;;;;;;;;;6244428;28;20025;-77
2022/11/30 02:30:02;;;;;;;55.05;27.77;;;;;;;;;;6246175;28;20021;-77
2022/11/30 02:33:09;;;;;;;63.42;27.55;;;;;;;;;;6243135;28;20014;-77
2022/11/30 02:36:09;;;;;;;56.05;26.30;;;;;;;;;;6237572;28;20033;-76
2022/11/30 02:39:10;;;;;;;54.37;26.83;;;;;;;;;;6245792;28;20381;-76
2022/11/30 02:42:12;;;;;;;52.73;24.17;;;;;;;;;;6235132;28;20030;-77
2022/11/30 02:45:12;;;;;;;53.78;25.33;;;;;;;;;;6250152;28;20021;-77
2022/11/30 02:48:14;;;;;;;54.47;25.77;;;;;;;;;;6251407;28;20020;-76
2022/11/30 02:51:17;;;;;;;61.22;28.20;;;;;;;;;;6242417;28;20041;-78
2022/11/30 02:54:17;;;;;;;55.35;25.55;;;;;;;;;;6245493;28;20025;-77
2022/11/30 02:57:17;;;;;;;63.67;28.57;;;;;;;;;;6244292;28;20086;-78
2022/11/30 03:00:18;;;;;;;58.47;26.77;;;;;;;;;;6248537;28;20053;-78
2022/11/30 03:03:18;;;;;;;61.07;27.90;;;;;;;;;;6248767;28;20105;-78
2022/11/30 03:06:18;;;;;;;62.42;30.00;;;;;;;;;;6249267;28;20491;-77
2022/11/30 03:09:18;;;;;;;61.73;28.30;;;;;;;;;;6247869;28;20029;-78
2022/11/30 03:12:19;;;;;;;59.57;28.43;;;;;;;;;;6255415;28;20021;-78
2022/11/30 03:15:19;;;;;;;63.87;26.63;;;;;;;;;;6251099;28;20029;-78
2022/11/30 03:18:19;;;;;;;66.53;28.57;;;;;;;;;;6246905;28;20417;-78
2022/11/30 03:21:19;;;;;;;55.73;28.37;;;;;;;;;;6234336;28;20017;-78
2022/11/30 03:24:19;;;;;;;58.67;28.30;;;;;;;;;;6249952;28;20105;-78
2022/11/30 03:27:20;;;;;;;64.30;29.33;;;;;;;;;;6239260;28;20009;-79
2022/11/30 03:30:20;;;;;;;60.33;30.03;;;;;;;;;;6239193;28;20014;-79
2022/11/30 03:33:20;;;;;;;67.57;28.20;;;;;;;;;;6247900;28;20044;-79
2022/11/30 03:36:20;;;;;;;54.13;23.07;;;;;;;;;;6247752;28;20108;-79
2022/11/30 03:39:21;;;;;;;64.13;26.73;;;;;;;;;;6244339;28;20018;-79
2022/11/30 03:42:21;;;;;;;59.37;27.57;;;;;;;;;;6248489;28;20025;-79
2022/11/30 03:45:21;;;;;;;55.50;25.25;;;;;;;;;;6244545;28;20025;-79
2022/11/30 03:48:22;;;;;;;53.30;25.17;;;;;;;;;;6250048;28;20052;-79
2022/11/30 03:51:22;;;;;;;59.63;28.83;;;;;;;;;;6248518;28;20132;-79
2022/11/30 03:54:22;;;;;;;60.33;27.33;;;;;;;;;;6249669;28;20021;-79
2022/11/30 03:57:22;;;;;;;54.73;25.97;;;;;;;;;;6247961;28;20005;-79
2022/11/30 04:00:22;;;;;;;55.08;26.23;;;;;;;;;;6248396;28;20091;-79
2022/11/30 04:03:22;;;;;;;56.10;26.90;;;;;;;;;;6247633;28;20055;-79
2022/11/30 04:06:23;;;;;;;54.40;27.00;;;;;;;;;;6242716;28;20029;-80
2022/11/30 04:09:23;;;;;;;60.27;30.23;;;;;;;;;;6249352;28;20524;-79
2022/11/30 04:12:23;;;;;;;54.50;25.90;;;;;;;;;;6242552;28;20021;-79
2022/11/30 04:15:23;;;;;;;60.35;28.38;;;;;;;;;;6247079;28;20025;-78
2022/11/30 04:18:24;;;;;;;60.43;28.77;;;;;;;;;;6248535;28;20458;-79
2022/11/30 04:21:24;;;;;;;55.83;25.60;;;;;;;;;;6249351;28;20033;-78
2022/11/30 04:24:25;;;;;;;54.47;28.00;;;;;;;;;;6238744;28;20492;-79
2022/11/30 04:27:27;;;;;;;58.70;25.93;;;;;;;;;;6247009;28;20060;-79
2022/11/30 04:30:27;;;;;;;53.10;25.95;;;;;;;;;;6247592;28;20350;-79
2022/11/30 04:33:28;;;;;;;58.30;27.23;;;;;;;;;;6234678;28;20041;-79
2022/11/30 04:36:28;;;;;;;50.23;25.33;;;;;;;;;;6250034;28;20425;-80
2022/11/30 04:39:28;;;;;;;52.03;23.35;;;;;;;;;;6248888;28;20084;-80
2022/11/30 04:42:28;;;;;;;43.50;23.97;;;;;;;;;;6247325;28;20056;-79
2022/11/30 04:45:28;;;;;;;47.33;22.17;;;;;;;;;;6245998;28;20014;-78
2022/11/30 04:48:29;;;;;;;58.92;26.55;;;;;;;;;;6249717;28;20014;-79
2022/11/30 04:51:29;;;;;;;51.73;25.30;;;;;;;;;;6244569;28;20072;-79
2022/11/30 04:54:29;;;;;;;52.10;24.03;;;;;;;;;;6241069;28;20056;-79
2022/11/30 04:57:30;;;;;;;49.70;24.37;;;;;;;;;;6246260;28;20029;-79
2022/11/30 05:00:30;;;;;;;47.43;25.37;;;;;;;;;;6248234;28;20060;-79
2022/11/30 05:03:30;;;;;;;55.20;26.53;;;;;;;;;;6243218;28;20280;-79
2022/11/30 05:06:31;;;;;;;59.80;27.73;;;;;;;;;;6242922;28;20521;-79
2022/11/30 05:09:31;;;;;;;56.90;26.07;;;;;;;;;;6238866;28;20049;-79
2022/11/30 05:12:31;;;;;;;52.90;26.07;;;;;;;;;;6243458;28;20188;-78
2022/11/30 05:15:32;;;;;;;53.97;25.10;;;;;;;;;;6245029;28;20025;-79
2022/11/30 05:18:32;;;;;;;53.03;24.20;;;;;;;;;;6244320;28;20026;-79
2022/11/30 05:21:32;;;;;;;49.77;24.47;;;;;;;;;;6240217;28;20033;-78
2022/11/30 05:24:32;;;;;;;48.77;23.43;;;;;;;;;;6244733;28;20045;-79
2022/11/30 05:27:34;;;;;;;48.37;22.47;;;;;;;;;;6235885;28;20025;-78
2022/11/30 05:30:34;;;;;;;49.45;24.38;;;;;;;;;;6238680;28;20048;-79
2022/11/30 05:33:34;;;;;;;55.87;26.30;;;;;;;;;;6228151;28;20025;-79
2022/11/30 05:36:34;;;;;;;48.50;22.90;;;;;;;;;;6243481;28;20468;-79
2022/11/30 05:39:34;;;;;;;51.17;23.70;;;;;;;;;;6248185;28;20021;-78
2022/11/30 05:42:35;;;;;;;48.03;23.80;;;;;;;;;;6245432;28;20010;-78
2022/11/30 05:45:35;;;;;;;56.83;28.42;;;;;;;;;;6245663;28;20009;-78
2022/11/30 05:48:35;;;;;;;52.92;25.73;;;;;;;;;;6245105;28;20569;-78
2022/11/30 05:51:35;;;;;;;49.37;22.83;;;;;;;;;;6246680;28;20156;-78
2022/11/30 05:54:36;;;;;;;49.80;25.37;;;;;;;;;;6247767;28;20048;-78
2022/11/30 05:57:37;;;;;;;45.97;22.60;;;;;;;;;;6247531;28;20021;-78
2022/11/30 06:00:37;;;;;;;51.30;25.70;;;;;;;;;;6246823;28;20057;-79
2022/11/30 06:03:37;;;;;;;50.43;22.93;;;;;;;;;;6240960;28;20109;-78
2022/11/30 06:06:37;;;;;;;50.87;23.40;;;;;;;;;;6243278;28;20443;-78
2022/11/30 06:09:38;;;;;;;54.60;24.47;;;;;;;;;;6236468;28;20017;-78
2022/11/30 06:12:38;;;;;;;49.70;26.63;;;;;;;;;;6235664;28;20088;-78
2022/11/30 06:15:39;;;;;;;58.67;25.43;;;;;;;;;;6244757;28;20063;-78
2022/11/30 06:18:39;;;;;;;42.87;23.90;;;;;;;;;;6246199;28;20024;-78
2022/11/30 06:21:39;;;;;;;44.63;23.30;;;;;;;;;;6239634;28;20544;-78
2022/11/30 06:24:40;;;;;;;51.37;23.87;;;;;;;;;;6237720;28;20013;-78
2022/11/30 06:27:40;;;;;;;50.37;24.70;;;;;;;;;;6242719;28;20013;-78
2022/11/30 06:30:41;;;;;;;42.33;20.53;;;;;;;;;;6247226;28;20012;-78
2022/11/30 06:33:41;;;;;;;51.83;23.73;;;;;;;;;;6236435;28;20450;-78
2022/11/30 06:36:41;;;;;;;53.93;23.20;;;;;;;;;;6240387;28;20022;-78
2022/11/30 06:39:41;;;;;;;52.40;23.10;;;;;;;;;;6245764;28;20084;-77
2022/11/30 06:42:42;;;;;;;49.13;23.20;;;;;;;;;;6240555;28;20387;-77
2022/11/30 06:45:43;;;;;;;51.27;23.60;;;;;;;;;;6244719;28;20054;-77
2022/11/30 06:48:46;;;;;;;52.97;26.70;;;;;;;;;;6245017;28;20088;-77
2022/11/30 06:51:46;;;;;;;50.83;25.90;;;;;;;;;;6233638;28;20017;-78
2022/11/30 06:54:47;;;;;;;54.50;25.80;;;;;;;;;;6237110;28;20033;-78
2022/11/30 06:57:47;;;;;;;48.92;26.92;;;;;;;;;;6245960;28;20520;-78
2022/11/30 07:00:48;;;;;;;47.57;25.10;;;;;;;;;;6246561;28;20107;-77
2022/11/30 07:03:48;;;;;;;55.20;25.23;;;;;;;;;;6243114;28;20031;-77
2022/11/30 07:06:48;;;;;;;57.77;27.20;;;;;;;;;;6241195;28;20401;-77
2022/11/30 07:09:49;;;;;;;56.83;28.37;;;;;;;;;;6243224;28;20032;-77
2022/11/30 07:12:49;;;;;;;49.33;26.70;;;;;;;;;;6241922;28;20025;-77
2022/11/30 07:15:50;;;;;;;48.78;25.58;;;;;;;;;;6246703;28;20037;-78
2022/11/30 07:18:50;;;;;;;45.67;21.47;;;;;;;;;;6244758;28;20021;-78
2022/11/30 07:21:50;;;;;;;49.47;22.47;;;;;;;;;;6244760;28;20554;-77
2022/11/30 07:28:09;;;;;;;53.90;24.38;;;;;;;;;;6247165;28;20029;-77
2022/11/30 07:31:13;;;;;;;48.60;21.35;;;;;;;;;;6248439;28;20033;-77
2022/11/30 07:34:13;;;;;;;47.72;25.55;;;;;;;;;;6243229;28;20040;-77
2022/11/30 07:37:13;;;;;;;50.83;24.80;;;;;;;;;;6250017;28;20486;-77
2022/11/30 07:40:13;;;;;;;54.87;26.40;;;;;;;;;;6242785;28;20028;-77
2022/11/30 07:43:14;;;;;;;48.43;24.53;;;;;;;;;;6249697;28;20022;-77
2022/11/30 07:46:15;;;;;;;45.60;24.20;;;;;;;;;;6244971;28;20024;-77
2022/11/30 07:49:15;;;;;;;49.53;23.37;;;;;;;;;;6251501;28;20018;-76
2022/11/30 07:52:15;;;;;;;48.47;22.70;;;;;;;;;;6250269;28;20040;-78
2022/11/30 07:55:16;;;;;;;41.40;21.67;;;;;;;;;;6243965;28;20025;-76
2022/11/30 07:58:16;;;;;;;44.87;22.60;;;;;;;;;;6242346;28;20022;-78
2022/11/30 08:01:18;;;;;;;50.38;22.40;;;;;;;;;;6249212;28;20037;-78
2022/11/30 08:04:18;;;;;;;44.65;21.63;;;;;;;;;;6264511;28;20016;-77
2022/11/30 08:07:18;;;;;;;44.33;21.70;;;;;;;;;;6246739;28;20017;-78
2022/11/30 08:10:19;;;;;;;43.60;21.23;;;;;;;;;;6243102;28;20021;-77
2022/11/30 08:13:20;;;;;;;41.97;23.37;;;;;;;;;;6241960;28;20032;-78
2022/11/30 08:16:21;;;;;;;45.77;24.50;;;;;;;;;;6247766;28;20616;-78
2022/11/30 08:19:21;;;;;;;47.42;22.70;;;;;;;;;;6243000;28;20017;-78
2022/11/30 08:22:22;;;;;;;41.10;21.70;;;;;;;;;;6245139;28;20563;-78
2022/11/30 08:25:22;;;;;;;47.13;22.23;;;;;;;;;;6247189;28;20014;-77
2022/11/30 08:28:22;;;;;;;53.13;25.88;;;;;;;;;;6243942;28;20050;-78
2022/11/30 08:31:30;;;;;;;40.20;23.20;;;;;;;;;;6243404;28;20032;-78
2022/11/30 08:34:30;;;;;;;42.83;21.85;;;;;;;;;;6243315;28;20029;-78
2022/11/30 08:37:30;;;;;;;37.73;19.20;;;;;;;;;;6246247;28;20036;-78
2022/11/30 08:40:30;;;;;;;41.97;21.98;;;;;;;;;;6247401;28;20029;-77
2022/11/30 08:43:31;;;;;;;29.70;16.33;;;;;;;;;;6244098;28;20535;-78
2022/11/30 08:46:31;;;;;;;44.33;21.57;;;;;;;;;;6243074;28;20018;-78
2022/11/30 08:49:31;;;;;;;43.53;20.97;;;;;;;;;;6242918;28;20020;-78
2022/11/30 08:52:31;;;;;;;38.17;21.27;;;;;;;;;;6242250;28;20002;-78
2022/11/30 08:55:32;;;;;;;42.10;21.55;;;;;;;;;;6247366;28;20017;-77
2022/11/30 08:58:33;;;;;;;37.43;20.93;;;;;;;;;;6246086;28;20052;-76
2022/11/30 09:01:34;;;;;;;48.25;23.20;;;;;;;;;;6244136;28;20115;-76
2022/11/30 09:04:34;;;;;;;46.73;23.83;;;;;;;;;;6244344;28;20493;-77
2022/11/30 09:07:34;;;;;;;42.87;22.53;;;;;;;;;;6246560;28;20017;-77
2022/11/30 09:10:34;;;;;;;44.50;23.45;;;;;;;;;;6246089;28;20075;-76
2022/11/30 09:13:34;;;;;;;42.47;21.95;;;;;;;;;;6247165;28;20025;-77
2022/11/30 09:16:35;;;;;;;48.87;20.93;;;;;;;;;;6239924;28;20064;-77
2022/11/30 09:19:35;;;;;;;42.07;21.63;;;;;;;;;;6240965;28;20115;-77
2022/11/30 09:22:35;;;;;;;43.43;22.60;;;;;;;;;;6242232;28;20481;-77
2022/11/30 09:25:35;;;;;;;48.13;22.33;;;;;;;;;;6243865;28;20359;-77
2022/11/30 09:28:36;;;;;;;48.97;23.92;;;;;;;;;;6245300;28;20025;-77
2022/11/30 09:31:36;;;;;;;41.83;22.83;;;;;;;;;;6247561;28;20027;-78
2022/11/30 09:34:36;;;;;;;42.27;22.57;;;;;;;;;;6238111;28;20477;-77
2022/11/30 09:37:37;;;;;;;47.30;23.57;;;;;;;;;;6244034;28;20052;-78
2022/11/30 09:40:39;;;;;;;43.83;24.13;;;;;;;;;;6244240;28;20014;-77
2022/11/30 09:43:58;;;;;;;52.15;25.33;;;;;;;;;;6245133;28;20022;-77
2022/11/30 09:47:04;;;;;;;39.88;22.25;;;;;;;;;;6231818;28;20509;-77
2022/11/30 09:50:12;;;;;;;42.78;20.88;;;;;;;;;;6246562;28;20080;-76
2022/11/30 09:53:33;;;;;;;43.60;24.70;;;;;;;;;;6240173;28;20018;-77
2022/11/30 09:56:34;;;;;;;43.97;22.67;;;;;;;;;;6242634;28;20032;-76
2022/11/30 09:59:34;;;;;;;;;;;;;;;;;;6245458;28;20580;-77
2022/11/30 10:02:37;;;;;;;40.65;23.92;;;;;;;;;;6244557;28;20357;-77
2022/11/30 10:05:46;;;;;;;42.33;21.02;;;;;;;;;;6240175;28;20038;-77
2022/11/30 10:08:52;;;;;;;43.67;24.23;;;;;;;;;;6238032;28;20090;-77
2022/11/30 10:12:13;;;;;;;49.30;22.38;;;;;;;;;;6240439;28;20049;-77
2022/11/30 10:15:25;;;;;;;43.28;25.10;;;;;;;;;;6241422;28;20073;-77
2022/11/30 10:18:25;;;;;;;43.13;23.60;;;;;;;;;;6243317;28;20759;-77
2022/11/30 10:21:26;;;;;;;34.20;19.27;;;;;;;;;;6237305;28;20041;-77
2022/11/30 10:24:38;;;;;;;36.17;19.75;;;;;;;;;;6238391;28;20022;-78
2022/11/30 10:27:47;;;;;;;38.95;20.27;;;;;;;;;;6242632;28;20013;-78
2022/11/30 10:30:48;;;;;;;38.72;19.40;;;;;;;;;;6244432;28;20587;-78
2022/11/30 10:33:49;;;;;;;36.67;19.73;;;;;;;;;;6244636;28;20025;-77
2022/11/30 10:36:57;;;;;;;36.95;20.45;;;;;;;;;;6242422;28;20037;-78
2022/11/30 10:39:59;;;;;;;36.63;18.90;;;;;;;;;;6243168;28;20118;-78
2022/11/30 10:43:02;;;;;;;36.58;20.15;;;;;;;;;;6245394;28;20459;-77
2022/11/30 10:46:03;;;;;;;34.80;20.13;;;;;;;;;;6238915;28;20021;-77
2022/11/30 10:49:05;;;;;;;34.50;20.73;;;;;;;;;;6243659;28;20470;-78
2022/11/30 10:52:07;;;;;;;39.05;20.13;;;;;;;;;;6244038;28;20021;-77
2022/11/30 10:55:16;;;;;;;33.13;18.90;;;;;;;;;;6239121;28;20021;-77
2022/11/30 10:58:23;;;;;;;34.35;18.60;;;;;;;;;;6248592;28;20032;-77
2022/11/30 11:01:36;;;;;;;34.38;17.50;;;;;;;;;;6243946;28;20600;-77
2022/11/30 11:04:37;;;;;;;33.15;19.58;;;;;;;;;;6243902;28;20542;-77
2022/11/30 11:07:44;;;;;;;33.63;18.37;;;;;;;;;;6244316;28;20017;-76
2022/11/30 11:10:46;;;;;;;30.48;20.20;;;;;;;;;;6247144;28;20128;-77
2022/11/30 11:13:46;;;;;;;;;;;;;;;;;;6251649;28;20408;-76
2022/11/30 11:16:51;;;;;;;36.53;19.73;;;;;;;;;;6244245;28;19916;-77
2022/11/30 11:19:51;;;;;;;35.83;18.58;;;;;;;;;;6241420;28;20260;-77
2022/11/30 11:22:51;;;;;;;35.27;19.10;;;;;;;;;;6249163;28;20378;-77
2022/11/30 11:25:52;;;;;;;35.33;18.53;;;;;;;;;;6249967;28;20002;-77
2022/11/30 11:28:53;;;;;;;31.57;19.93;;;;;;;;;;6249535;28;20013;-77
2022/11/30 11:32:04;;;;;;;32.40;17.38;;;;;;;;;;6247531;28;20091;-77
2022/11/30 11:35:24;;;;;;;33.47;17.65;;;;;;;;;;6243288;28;20121;-76
2022/11/30 11:38:28;;;;;;;30.17;16.10;;;;;;;;;;6243204;28;20539;-76
2022/11/30 11:41:32;;;;;;;33.47;18.58;;;;;;;;;;6245734;28;20543;-77
2022/11/30 11:44:33;;;;;;;32.03;17.55;;;;;;;;;;6248061;28;20009;-77
2022/11/30 11:47:38;;;;;;;37.40;18.73;;;;;;;;;;6247945;28;20365;-77
2022/11/30 11:50:38;;;;;;;30.15;18.25;;;;;;;;;;6248251;28;20018;-76
2022/11/30 11:53:41;;;;;;;39.00;19.50;;;;;;;;;;6248170;28;20025;-77
2022/11/30 11:56:42;;;;;;;33.28;17.02;;;;;;;;;;6242031;28;20013;-77
2022/11/30 11:59:49;;;;;;;32.40;18.70;;;;;;;;;;6234245;28;20074;-77
2022/11/30 12:03:03;;;;;;;31.50;18.42;;;;;;;;;;6245431;28;20725;-77
2022/11/30 12:06:12;;;;;;;34.38;17.88;;;;;;;;;;6242403;28;20018;-77
2022/11/30 12:09:24;;;;;;;36.80;19.90;;;;;;;;;;6238634;28;20021;-77
2022/11/30 12:12:24;;;;;;;31.63;18.10;;;;;;;;;;6248742;28;20029;-77
2022/11/30 12:15:31;;;;;;;29.87;18.07;;;;;;;;;;6247737;28;20075;-77
2022/11/30 12:18:37;;;;;;;27.92;16.65;;;;;;;;;;6242822;28;20029;-77
2022/11/30 12:21:45;;;;;;;28.95;18.25;;;;;;;;;;6242763;28;20022;-77
2022/11/30 12:25:04;;;;;;;35.10;19.17;;;;;;;;;;6244712;28;20524;-77
2022/11/30 12:28:23;;;;;;;28.50;16.88;;;;;;;;;;6243966;28;20026;-76
2022/11/30 12:31:30;;;;;;;33.72;18.77;;;;;;;;;;6245866;28;20355;-76
2022/11/30 12:34:49;;;;;;;35.38;19.80;;;;;;;;;;6240022;28;20492;-77
2022/11/30 12:37:50;;;;;;;32.72;18.25;;;;;;;;;;6245921;28;20021;-77
2022/11/30 12:40:50;;;;;;;30.60;18.35;;;;;;;;;;6240051;28;20037;-77
2022/11/30 12:43:50;;;;;;;29.50;17.75;;;;;;;;;;6246549;28;20486;-77
2022/11/30 12:46:53;;;;;;;29.80;17.70;;;;;;;;;;6242720;28;20029;-77
2022/11/30 12:49:56;;;;;;;29.25;15.85;;;;;;;;;;6246715;28;20025;-77
2022/11/30 12:53:17;;;;;;;26.73;15.60;;;;;;;;;;6241290;28;20030;-77
2022/11/30 12:56:49;;;;;;;29.58;16.48;;;;;;;;;;6243259;28;20029;-77
2022/11/30 12:59:53;;;;;;;33.47;18.13;;;;;;;;;;6221742;28;20516;-77
2022/11/30 13:03:13;;;;;;;31.80;18.30;;;;;;;;;;6240589;28;20374;-77
2022/11/30 13:06:16;;;;;;;34.75;17.90;;;;;;;;;;6240374;28;20034;-77
2022/11/30 13:09:25;;;;;;;32.78;19.83;;;;;;;;;;6244606;28;20056;-76
2022/11/30 13:12:34;;;;;;;37.47;20.27;;;;;;;;;;6236936;28;20078;-76
2022/11/30 13:15:35;;;;;;;39.42;20.52;;;;;;;;;;6243528;28;20040;-77
2022/11/30 13:18:36;;;;;;;36.60;18.83;;;;;;;;;;6246657;28;20029;-76
2022/11/30 13:21:38;;;;;;;26.73;14.37;;;;;;;;;;6240742;28;20118;-76
2022/11/30 13:24:41;;;;;;;38.45;20.58;;;;;;;;;;6246652;28;20032;-76
2022/11/30 13:28:11;;;;;;;33.65;18.27;;;;;;;;;;6260637;28;20025;-76
2022/11/30 13:31:23;;;;;;;38.38;19.48;;;;;;;;;;6240146;28;20359;-76
2022/11/30 13:34:25;;;;;;;35.28;19.85;;;;;;;;;;6246481;28;20102;-76
2022/11/30 13:37:27;;;;;;;33.88;19.10;;;;;;;;;;6234506;28;20026;-76
2022/11/30 13:40:27;;;;;;;30.23;18.17;;;;;;;;;;6243036;28;20115;-75
2022/11/30 13:43:29;;;;;;;30.83;18.23;;;;;;;;;;6242286;28;20025;-76
2022/11/30 13:46:30;;;;;;;36.92;19.52;;;;;;;;;;6236593;28;20057;-75
2022/11/30 13:49:32;;;;;;;41.00;22.27;;;;;;;;;;6232759;28;20020;-76
2022/11/30 13:52:51;;;;;;;40.20;21.23;;;;;;;;;;6241692;28;20029;-76
2022/11/30 13:55:54;;;;;;;43.47;21.50;;;;;;;;;;6236205;28;20418;-76
2022/11/30 13:59:13;;;;;;;36.35;19.17;;;;;;;;;;6242328;28;20470;-76
2022/11/30 14:02:41;;;;;;;37.85;20.80;;;;;;;;;;6243200;28;20112;-76
2022/11/30 14:05:42;;;;;;;41.33;22.05;;;;;;;;;;6241604;28;20014;-75
2022/11/30 14:08:43;;;;;;;44.53;21.00;;;;;;;;;;6235876;28;20017;-75
2022/11/30 14:11:44;;;;;;;36.87;19.93;;;;;;;;;;6241483;28;20816;-76
2022/11/30 14:14:45;;;;;;;47.63;26.57;;;;;;;;;;6242945;28;20045;-74
2022/11/30 14:17:46;;;;;;;45.15;24.25;;;;;;;;;;6242692;28;20035;-75
2022/11/30 14:20:56;;;;;;;38.07;20.53;;;;;;;;;;6241015;28;20151;-74
2022/11/30 14:23:58;;;;;;;31.48;18.83;;;;;;;;;;6240830;28;20025;-75
2022/11/30 14:27:01;;;;;;;43.22;19.35;;;;;;;;;;6242214;28;20021;-76
2022/11/30 14:30:02;;;;;;;32.25;19.23;;;;;;;;;;6245191;28;20012;-75
2022/11/30 14:33:11;;;;;;;39.38;19.75;;;;;;;;;;6249679;28;20040;-75
2022/11/30 14:36:11;;;;;;;44.40;19.70;;;;;;;;;;6246429;28;20440;-75
2022/11/30 14:39:41;;;;;;;38.67;21.50;;;;;;;;;;6246707;28;20021;-75
2022/11/30 14:42:45;;;;;;;38.95;20.98;;;;;;;;;;6241555;28;20029;-76
2022/11/30 14:46:02;;;;;;;41.00;20.90;;;;;;;;;;6249084;28;20024;-75
2022/11/30 14:49:10;;;;;;;46.83;23.70;;;;;;;;;;6248064;28;20026;-76
2022/11/30 14:52:12;;;;;;;40.30;20.55;;;;;;;;;;6247152;28;20113;-76
2022/11/30 14:55:33;;;;;;;37.45;19.58;;;;;;;;;;6236071;28;20018;-76
2022/11/30 14:58:38;;;;;;;40.95;21.88;;;;;;;;;;6243350;28;20670;-76
2022/11/30 15:01:39;;;;;;;42.72;21.63;;;;;;;;;;6241019;28;20038;-76
2022/11/30 15:04:40;;;;;;;42.60;22.53;;;;;;;;;;6247317;28;20386;-77
2022/11/30 15:07:41;;;;;;;45.40;23.47;;;;;;;;;;6248492;28;20389;-75
2022/11/30 15:10:42;;;;;;;44.33;20.65;;;;;;;;;;6247228;28;20097;-76
2022/11/30 15:14:05;;;;;;;40.13;21.10;;;;;;;;;;6246431;28;20022;-76
2022/11/30 15:17:12;;;;;;;48.00;23.63;;;;;;;;;;6244776;28;20026;-76
2022/11/30 15:20:33;;;;;;;43.35;22.17;;;;;;;;;;6256748;28;20017;-76
2022/11/30 15:23:33;;;;;;;47.78;23.40;;;;;;;;;;6240725;28;20033;-76
2022/11/30 15:26:36;;;;;;;47.47;21.43;;;;;;;;;;6238282;28;20044;-77
2022/11/30 15:29:39;;;;;;;43.33;20.85;;;;;;;;;;6240186;28;20279;-77
2022/11/30 15:32:42;;;;;;;45.50;23.38;;;;;;;;;;6244761;28;20052;-77
2022/11/30 15:35:45;;;;;;;42.35;24.20;;;;;;;;;;6246588;28;20350;-78
2022/11/30 15:38:49;;;;;;;47.40;22.73;;;;;;;;;;6240990;28;20021;-77
2022/11/30 15:41:53;;;;;;;44.83;22.25;;;;;;;;;;6246172;28;20025;-77
2022/11/30 15:45:07;;;;;;;46.40;23.98;;;;;;;;;;6244841;28;20427;-78
2022/11/30 15:48:25;;;;;;;44.63;24.23;;;;;;;;;;6247233;28;20147;-78
2022/11/30 15:51:35;;;;;;;43.40;23.25;;;;;;;;;;6248019;28;20018;-77
2022/11/30 15:54:47;;;;;;;46.03;23.33;;;;;;;;;;6241488;28;20022;-77
2022/11/30 15:58:01;;;;;;;43.90;25.45;;;;;;;;;;6236123;28;20022;-78
2022/11/30 16:01:07;;;;;;;46.03;24.05;;;;;;;;;;6246984;28;20087;-77
2022/11/30 16:04:07;;;;;;;53.78;24.70;;;;;;;;;;6243239;28;20156;-77
2022/11/30 16:07:15;;;;;;;47.53;24.80;;;;;;;;;;6243250;28;20006;-77
2022/11/30 16:10:18;;;;;;;47.22;24.88;;;;;;;;;;6238256;28;20666;-78
2022/11/30 16:13:20;;;;;;;51.40;25.30;;;;;;;;;;6246983;28;20028;-77
2022/11/30 16:16:22;;;;;;;49.70;22.60;;;;;;;;;;6250696;28;20060;-79
2022/11/30 16:19:23;;;;;;;48.05;23.63;;;;;;;;;;6254957;28;20017;-78
2022/11/30 16:22:23;;;;;;;51.60;27.73;;;;;;;;;;6255765;28;20099;-78
2022/11/30 16:25:24;;;;;;;47.87;23.70;;;;;;;;;;6245257;28;20044;-79
2022/11/30 16:28:24;;;;;;;49.70;24.73;;;;;;;;;;6250667;28;20026;-78
2022/11/30 16:31:24;;;;;;;46.40;25.93;;;;;;;;;;6251807;28;20021;-77
2022/11/30 16:34:24;;;;;;;45.43;23.83;;;;;;;;;;6251750;28;20298;-78
2022/11/30 16:37:25;;;;;;;45.20;21.98;;;;;;;;;;6249245;28;20433;-78
2022/11/30 16:40:25;;;;;;;46.97;23.80;;;;;;;;;;6245393;28;20017;-78
2022/11/30 16:43:25;;;;;;;50.33;24.33;;;;;;;;;;6244499;28;20025;-78
2022/11/30 16:46:26;;;;;;;50.50;25.50;;;;;;;;;;6244977;28;20025;-79
2022/11/30 16:49:26;;;;;;;47.47;25.67;;;;;;;;;;6236780;28;20457;-78
2022/11/30 16:52:27;;;;;;;57.40;27.57;;;;;;;;;;6248009;28;20028;-79
2022/11/30 16:55:28;;;;;;;50.30;22.63;;;;;;;;;;6236655;28;20029;-78
2022/11/30 16:58:28;;;;;;;43.95;23.10;;;;;;;;;;6245261;28;20028;-78
2022/11/30 17:01:34;;;;;;;49.07;24.97;;;;;;;;;;6247416;28;20057;-78
2022/11/30 17:04:34;;;;;;;48.92;25.52;;;;;;;;;;6245468;28;20026;-78
2022/11/30 17:07:36;;;;;;;51.30;24.73;;;;;;;;;;6246531;28;20044;-78
2022/11/30 17:10:37;;;;;;;51.58;25.83;;;;;;;;;;6242018;28;20025;-79
2022/11/30 17:13:37;;;;;;;45.93;26.20;;;;;;;;;;6248169;28;20083;-78
2022/11/30 17:16:37;;;;;;;46.63;23.97;;;;;;;;;;6247354;28;20378;-77
2022/11/30 17:19:38;;;;;;;55.13;28.93;;;;;;;;;;6240926;28;20014;-79
2022/11/30 17:22:38;;;;;;;48.40;25.58;;;;;;;;;;6243389;28;20025;-78
2022/11/30 17:25:39;;;;;;;56.60;26.93;;;;;;;;;;6247320;28;20354;-78
2022/11/30 17:28:42;;;;;;;50.47;24.30;;;;;;;;;;6244902;28;20014;-77
2022/11/30 17:31:42;;;;;;;55.95;27.17;;;;;;;;;;6245096;28;20022;-79
2022/11/30 17:34:43;;;;;;;47.00;25.17;;;;;;;;;;6245333;28;20017;-78
2022/11/30 17:37:43;;;;;;;50.43;26.77;;;;;;;;;;6244164;28;20021;-77
2022/11/30 17:40:44;;;;;;;49.23;24.40;;;;;;;;;;6240622;28;20025;-77
2022/11/30 17:43:44;;;;;;;52.03;27.20;;;;;;;;;;6240169;28;20024;-77
2022/11/30 17:46:44;;;;;;;40.30;21.20;;;;;;;;;;6236584;28;20025;-77
2022/11/30 17:49:44;;;;;;;32.23;18.67;;;;;;;;;;6235285;28;20108;-78